| time (UTC) | temp F | wind direction | speed knots | gust knots | rain 1hr in | rain 24hr in | rain mn in | humidity % | barometer mb |
| 20260906021531 | 81 | 100 | 0.0 | 1.7 | 0.00 | 0.00 | 0.00 | 70 | 1012.0 |
| 20260906020017 | 81 | 100 | 0.0 | 0.0 | 0.00 | 0.00 | 0.00 | 69 | 1011.6 |
| 20260906014523 | 82 | 100 | 0.0 | 0.0 | 0.00 | 0.00 | 0.00 | 67 | 1011.5 |
| 20260906013024 | 83 | 100 | 0.0 | 1.7 | 0.00 | 0.00 | 0.00 | 66 | 1011.4 |
| 20260906011526 | 84 | 100 | 0.0 | 1.7 | 0.00 | 0.00 | 0.00 | 62 | 1012.1 |
| 20260906010028 | 86 | 93 | 0.9 | 2.6 | 0.00 | 0.00 | 0.00 | 62 | 1012.1 |
| 20260906004520 | 88 | 98 | 0.0 | 1.7 | 0.00 | 0.00 | 0.00 | 64 | 1011.9 |
| 20260906003019 | 89 | 16 | 0.0 | 1.7 | 0.00 | 0.00 | 0.00 | 62 | 1011.6 |
| 20260906001542 | 90 | 223 | 0.0 | 1.7 | 0.00 | 0.00 | 0.00 | 59 | 1011.5 |
| 20260906000026 | 91 | 223 | 0.0 | 0.0 | 0.00 | 0.00 | 0.00 | 57 | 1011.5 |
| 20260905234527 | 92 | 223 | 0.0 | 1.7 | 0.00 | 0.00 | 0.00 | 55 | 1011.4 |
| 20260905233025 | 93 | 148 | 0.0 | 2.6 | 0.00 | 0.00 | 0.00 | 53 | 1011.5 |
| 20260905231511 | 94 | 242 | 0.0 | 2.6 | 0.00 | 0.00 | 0.00 | 53 | 1011.3 |
| 20260905230006 | 95 | 215 | 0.0 | 3.5 | 0.00 | 0.00 | 0.00 | 50 | 1011.3 |
| 20260905224510 | 97 | 125 | 0.9 | 2.6 | 0.00 | 0.00 | 0.00 | 47 | 1011.3 |
| 20260905223032 | 98 | 298 | 0.0 | 2.6 | 0.00 | 0.00 | 0.00 | 46 | 1011.4 |
| 20260905221507 | 98 | 313 | 0.9 | 3.5 | 0.00 | 0.00 | 0.00 | 46 | 1011.5 |
| 20260905220004 | 98 | 295 | 0.9 | 4.3 | 0.00 | 0.00 | 0.00 | 47 | 1011.4 |
| 20260905214513 | 98 | 94 | 0.9 | 3.5 | 0.00 | 0.00 | 0.00 | 46 | 1011.5 |
| 20260905213009 | 98 | 176 | 0.9 | 4.3 | 0.00 | 0.00 | 0.00 | 47 | 1011.6 |
| 20260905211523 | 99 | 225 | 0.0 | 6.1 | 0.00 | 0.00 | 0.00 | 48 | 1011.6 |
| 20260905210042 | 98 | 233 | 0.9 | 4.3 | 0.00 | 0.00 | 0.00 | 47 | 1011.8 |
| 20260905204504 | 98 | 183 | 1.7 | 6.1 | 0.00 | 0.00 | 0.00 | 47 | 1011.9 |
| 20260905203016 | 98 | 172 | 1.7 | 6.1 | 0.00 | 0.00 | 0.00 | 47 | 1012.0 |
| 20260905201521 | 97 | 304 | 0.9 | 10.4 | 0.00 | 0.00 | 0.00 | 48 | 1012.3 |
| 20260905200011 | 98 | 175 | 1.7 | 4.3 | 0.00 | 0.00 | 0.00 | 46 | 1012.6 |
| 20260905194530 | 97 | 247 | 1.7 | 4.3 | 0.00 | 0.00 | 0.00 | 49 | 1012.7 |
| 20260905193016 | 95 | 64 | 1.7 | 4.3 | 0.00 | 0.00 | 0.00 | 49 | 1012.8 |
| 20260905191513 | 96 | 275 | 0.9 | 6.1 | 0.00 | 0.00 | 0.00 | 49 | 1013.1 |
| 20260905190018 | 96 | 10 | 1.7 | 5.2 | 0.00 | 0.00 | 0.00 | 51 | 1013.3 |
| 20260905184529 | 96 | 174 | 0.9 | 4.3 | 0.00 | 0.00 | 0.00 | 1013.4 | |
| 20260905183011 | 95 | 235 | 0.9 | 1.7 | 0.00 | 0.00 | 0.00 | 53 | 1013.8 |
| 20260905181510 | 97 | 182 | 1.7 | 2.6 | 0.00 | 0.00 | 0.00 | 51 | 1014.0 |
| 20260905180019 | 97 | 147 | 0.0 | 1.7 | 0.00 | 0.00 | 0.00 | 53 | 1014.0 |
| 20260905174522 | 95 | 297 | 0.9 | 1.7 | 0.00 | 0.00 | 0.00 | 52 | 1014.3 |
| 20260905173017 | 95 | 55 | 0.0 | 2.6 | 0.00 | 0.00 | 0.00 | 54 | 1014.4 |
| 20260905171519 | 94 | 119 | 0.9 | 2.6 | 0.00 | 0.00 | 0.00 | 56 | 1014.5 |
| 20260905170013 | 93 | 98 | 0.0 | 1.7 | 0.00 | 0.00 | 0.00 | 58 | 1014.6 |
| 20260905164520 | 93 | 190 | 0.9 | 1.7 | 0.00 | 0.00 | 0.00 | 61 | 1014.9 |
| 20260905163027 | 92 | 181 | 0.0 | 2.6 | 0.00 | 0.00 | 0.00 | 63 | 1015.0 |
| 20260905161529 | 91 | 217 | 0.9 | 2.6 | 0.00 | 0.00 | 0.00 | 62 | 1015.2 |
| 20260905160024 | 89 | 5 | 0.9 | 2.6 | 0.00 | 0.00 | 0.00 | 65 | 1015.3 |
| 20260905154528 | 87 | 28 | 0.9 | 3.5 | 0.00 | 0.00 | 0.00 | 70 | 1015.3 |
| 20260905153024 | 85 | 49 | 1.7 | 3.5 | 0.00 | 0.00 | 0.00 | 73 | 1015.4 |
| 20260905151531 | 83 | 360 | 0.0 | 2.6 | 0.00 | 0.00 | 0.00 | 77 | 1015.4 |
| 20260905150034 | 82 | 17 | 0.0 | 0.0 | 0.00 | 0.00 | 0.00 | 81 | 1015.5 |
| 20260905144525 | 81 | 245 | 0.0 | 0.9 | 0.00 | 0.00 | 0.00 | 83 | 1015.6 |
| 20260905143024 | 79 | 230 | 0.0 | 1.7 | 0.00 | 0.00 | 0.00 | 86 | 1015.6 |
| 20260905141514 | 78 | 167 | 0.0 | 0.9 | 0.00 | 0.00 | 0.00 | 88 | 1015.5 |
| 20260905140007 | 77 | 275 | 0.0 | 0.0 | 0.00 | 0.00 | 0.00 | 89 | 1015.6 |
| 20260905134516 | 76 | 352 | 0.0 | 0.0 | 0.00 | 0.00 | 0.00 | 91 | 1015.6 |
| 20260905133014 | 75 | 182 | 0.0 | 0.0 | 0.00 | 0.00 | 0.00 | 93 | 1015.7 |
| 20260905131508 | 74 | 182 | 0.0 | 1.7 | 0.00 | 0.00 | 0.00 | 93 | 1015.7 |
| 20260905130014 | 74 | 9 | 0.0 | 0.0 | 0.00 | 0.00 | 0.00 | 94 | 1015.8 |
| 20260905124504 | 73 | 9 | 0.0 | 0.0 | 0.00 | 0.00 | 0.00 | 95 | 1015.8 |
| 20260905123027 | 73 | 9 | 0.0 | 0.0 | 0.00 | 0.00 | 0.00 | 96 | 1015.7 |
| 20260905121518 | 72 | 9 | 0.0 | 0.0 | 0.00 | 0.00 | 0.00 | 96 | 1015.5 |
| 20260905120030 | 72 | 9 | 0.0 | 0.0 | 0.00 | 0.00 | 0.00 | 95 | 1015.4 |
| 20260905114507 | 72 | 9 | 0.0 | 0.0 | 0.00 | 0.00 | 0.00 | 95 | 1015.2 |
| 20260905113009 | 72 | 9 | 0.0 | 0.0 | 0.00 | 0.00 | 0.00 | 95 | 1015.1 |
| 20260905111504 | 72 | 9 | 0.0 | 0.0 | 0.00 | 0.00 | 0.00 | 95 | 1014.9 |
| 20260905110019 | 72 | 9 | 0.0 | 0.0 | 0.00 | 0.00 | 0.00 | 95 | 1014.6 |
| 20260905104528 | 72 | 9 | 0.0 | 0.0 | 0.00 | 0.00 | 0.00 | 94 | 1014.5 |
| 20260905103009 | 72 | 9 | 0.0 | 0.0 | 0.00 | 0.00 | 0.00 | 94 | 1014.4 |
| 20260905101510 | 72 | 9 | 0.0 | 0.0 | 0.00 | 0.00 | 0.00 | 94 | 1014.4 |
| 20260905100221 | 73 | 9 | 0.0 | 0.0 | 0.00 | 0.00 | 0.00 | 95 | 1014.1 |
| 20260905100217 | 73 | 9 | 0.0 | 0.0 | 0.00 | 0.00 | 0.00 | 95 | 1014.2 |
| 20260905100157 | 73 | 9 | 0.0 | 0.0 | 0.00 | 0.00 | 0.00 | 95 | 1014.1 |
| 20260905044541 | 76 | 16 | 0.0 | 0.0 | 0.00 | 0.00 | 0.00 | 88 | 1014.7 |
| 20260905043021 | 77 | 16 | 0.0 | 1.7 | 0.00 | 0.00 | 0.00 | 88 | 1014.9 |
| 20260905041505 | 77 | 333 | 0.0 | 0.0 | 0.00 | 0.00 | 0.00 | 87 | 1014.8 |
| 20260905040015 | 78 | 333 | 0.0 | 0.0 | 0.00 | 0.00 | 0.00 | 85 | 1014.8 |
| 20260905034513 | 78 | 333 | 0.0 | 0.0 | 0.00 | 0.00 | 0.00 | 84 | 1015.0 |
| 20260905033004 | 79 | 333 | 0.0 | 0.0 | 0.00 | 0.00 | 0.00 | 83 | 1014.9 |
| 20260905031527 | 79 | 333 | 0.0 | 0.0 | 0.00 | 0.00 | 0.00 | 81 | 1014.9 |
| 20260905030019 | 80 | 333 | 0.0 | 0.0 | 0.00 | 0.00 | 0.00 | 80 | 1015.0 |
| 20260905024509 | 80 | 333 | 0.0 | 0.0 | 0.00 | 0.00 | 0.00 | 79 | 1015.2 |
| 20260905023014 | 81 | 281 | 0.0 | 0.0 | 0.00 | 0.00 | 0.00 | 80 | 1015.2 |